sensor_id;sensor_type;location;lat;lon;timestamp;pressure;altitude;pressure_sealevel;temperature;humidity
44297;BME280;51842;47.450;8.654;2023-04-15T00:01:26;94519.31;;;1.16;91.48
44297;BME280;51842;47.450;8.654;2023-04-15T00:03:53;94514.41;;;1.20;91.30
44297;BME280;51842;47.450;8.654;2023-04-15T00:06:20;94511.66;;;1.14;91.32
44297;BME280;51842;47.450;8.654;2023-04-15T00:08:47;94516.44;;;1.18;90.94
44297;BME280;51842;47.450;8.654;2023-04-15T00:11:13;94518.59;;;1.21;91.17
44297;BME280;51842;47.450;8.654;2023-04-15T00:13:40;94517.81;;;1.20;91.08
44297;BME280;51842;47.450;8.654;2023-04-15T00:16:07;94514.06;;;1.16;91.37
44297;BME280;51842;47.450;8.654;2023-04-15T00:18:34;94515.88;;;1.15;91.22
44297;BME280;51842;47.450;8.654;2023-04-15T00:21:00;94510.63;;;1.15;91.04
44297;BME280;51842;47.450;8.654;2023-04-15T00:23:27;94511.19;;;1.18;91.12
44297;BME280;51842;47.450;8.654;2023-04-15T00:25:53;94518.75;;;1.14;91.47
44297;BME280;51842;47.450;8.654;2023-04-15T00:28:19;94508.25;;;1.14;91.63
44297;BME280;51842;47.450;8.654;2023-04-15T00:30:45;94515.31;;;1.13;91.92
44297;BME280;51842;47.450;8.654;2023-04-15T00:33:13;94511.44;;;1.16;91.14
44297;BME280;51842;47.450;8.654;2023-04-15T00:35:39;94507.88;;;1.22;91.78
44297;BME280;51842;47.450;8.654;2023-04-15T00:38:06;94508.44;;;1.24;91.21
44297;BME280;51842;47.450;8.654;2023-04-15T00:40:32;94509.56;;;1.28;90.01
44297;BME280;51842;47.450;8.654;2023-04-15T00:42:59;94507.84;;;1.34;90.13
44297;BME280;51842;47.450;8.654;2023-04-15T00:45:25;94507.38;;;1.37;89.75
44297;BME280;51842;47.450;8.654;2023-04-15T00:47:53;94507.97;;;1.39;89.45
44297;BME280;51842;47.450;8.654;2023-04-15T00:50:19;94507.16;;;1.38;89.79
44297;BME280;51842;47.450;8.654;2023-04-15T00:52:44;94508.75;;;1.39;91.02
44297;BME280;51842;47.450;8.654;2023-04-15T00:55:11;94505.00;;;1.35;90.49
44297;BME280;51842;47.450;8.654;2023-04-15T00:57:38;94500.22;;;1.32;90.81
44297;BME280;51842;47.450;8.654;2023-04-15T01:00:07;94501.81;;;1.33;90.69
44297;BME280;51842;47.450;8.654;2023-04-15T01:02:34;94503.38;;;1.34;90.75
44297;BME280;51842;47.450;8.654;2023-04-15T01:05:01;94506.72;;;1.30;90.44
44297;BME280;51842;47.450;8.654;2023-04-15T01:07:29;94505.03;;;1.24;90.71
44297;BME280;51842;47.450;8.654;2023-04-15T01:09:55;94512.25;;;1.17;91.17
44297;BME280;51842;47.450;8.654;2023-04-15T01:12:24;94506.75;;;1.18;91.34
44297;BME280;51842;47.450;8.654;2023-04-15T01:14:52;94504.59;;;1.15;91.49
44297;BME280;51842;47.450;8.654;2023-04-15T01:17:18;94505.84;;;1.12;91.77
44297;BME280;51842;47.450;8.654;2023-04-15T01:19:44;94512.47;;;1.15;92.39
44297;BME280;51842;47.450;8.654;2023-04-15T01:22:10;94510.16;;;1.19;91.89
44297;BME280;51842;47.450;8.654;2023-04-15T01:24:36;94509.69;;;1.22;91.65
44297;BME280;51842;47.450;8.654;2023-04-15T01:27:03;94517.09;;;1.25;91.87
44297;BME280;51842;47.450;8.654;2023-04-15T01:29:31;94524.84;;;1.31;91.45
44297;BME280;51842;47.450;8.654;2023-04-15T01:31:57;94513.88;;;1.34;91.39
44297;BME280;51842;47.450;8.654;2023-04-15T01:34:23;94504.75;;;1.37;90.54
44297;BME280;51842;47.450;8.654;2023-04-15T01:36:49;94507.72;;;1.41;91.07
44297;BME280;51842;47.450;8.654;2023-04-15T01:39:15;94512.75;;;1.42;90.99
44297;BME280;51842;47.450;8.654;2023-04-15T01:41:41;94515.69;;;1.46;90.41
44297;BME280;51842;47.450;8.654;2023-04-15T01:44:07;94513.50;;;1.54;89.63
44297;BME280;51842;47.450;8.654;2023-04-15T01:46:34;94515.72;;;1.62;89.21
44297;BME280;51842;47.450;8.654;2023-04-15T01:49:00;94519.50;;;1.67;88.41
44297;BME280;51842;47.450;8.654;2023-04-15T01:51:26;94521.41;;;1.71;90.43
44297;BME280;51842;47.450;8.654;2023-04-15T01:53:53;94532.25;;;1.75;90.99
44297;BME280;51842;47.450;8.654;2023-04-15T01:56:21;94524.69;;;1.78;90.78
44297;BME280;51842;47.450;8.654;2023-04-15T01:58:49;94524.00;;;1.83;90.78
44297;BME280;51842;47.450;8.654;2023-04-15T02:01:14;94519.84;;;1.87;90.07
44297;BME280;51842;47.450;8.654;2023-04-15T02:03:41;94519.63;;;1.89;89.87
44297;BME280;51842;47.450;8.654;2023-04-15T02:06:07;94519.16;;;1.92;89.71
44297;BME280;51842;47.450;8.654;2023-04-15T02:08:33;94514.22;;;1.95;90.41
44297;BME280;51842;47.450;8.654;2023-04-15T02:10:59;94519.34;;;2.02;90.31
44297;BME280;51842;47.450;8.654;2023-04-15T02:13:25;94512.09;;;2.09;90.00
44297;BME280;51842;47.450;8.654;2023-04-15T02:15:53;94515.59;;;2.15;89.65
44297;BME280;51842;47.450;8.654;2023-04-15T02:18:19;94517.75;;;2.18;89.09
44297;BME280;51842;47.450;8.654;2023-04-15T02:20:45;94517.50;;;2.19;89.29
44297;BME280;51842;47.450;8.654;2023-04-15T02:23:11;94515.28;;;2.28;89.89
44297;BME280;51842;47.450;8.654;2023-04-15T02:25:37;94515.59;;;2.31;88.65
44297;BME280;51842;47.450;8.654;2023-04-15T02:28:05;94509.09;;;2.34;89.13
44297;BME280;51842;47.450;8.654;2023-04-15T02:30:32;94514.19;;;2.41;89.01
44297;BME280;51842;47.450;8.654;2023-04-15T02:32:59;94511.84;;;2.44;88.64
44297;BME280;51842;47.450;8.654;2023-04-15T02:35:25;94522.38;;;2.44;87.29
44297;BME280;51842;47.450;8.654;2023-04-15T02:37:51;94521.66;;;2.49;87.50
44297;BME280;51842;47.450;8.654;2023-04-15T02:40:17;94519.91;;;2.54;84.98
44297;BME280;51842;47.450;8.654;2023-04-15T02:42:43;94521.59;;;2.61;86.45
44297;BME280;51842;47.450;8.654;2023-04-15T02:45:10;94529.53;;;2.66;87.27
44297;BME280;51842;47.450;8.654;2023-04-15T02:47:39;94521.44;;;2.67;85.20
44297;BME280;51842;47.450;8.654;2023-04-15T02:50:11;94523.88;;;2.74;85.64
44297;BME280;51842;47.450;8.654;2023-04-15T02:52:41;94520.78;;;2.77;85.33
44297;BME280;51842;47.450;8.654;2023-04-15T02:55:08;94528.66;;;2.77;85.82
44297;BME280;51842;47.450;8.654;2023-04-15T02:57:34;94523.09;;;2.73;86.65
44297;BME280;51842;47.450;8.654;2023-04-15T03:00:03;94529.78;;;2.81;86.36
44297;BME280;51842;47.450;8.654;2023-04-15T03:02:38;94528.50;;;2.84;84.64
44297;BME280;51842;47.450;8.654;2023-04-15T03:05:05;94521.16;;;2.86;84.15
44297;BME280;51842;47.450;8.654;2023-04-15T03:07:31;94524.91;;;2.90;83.25
44297;BME280;51842;47.450;8.654;2023-04-15T03:09:57;94528.94;;;2.97;84.26
44297;BME280;51842;47.450;8.654;2023-04-15T03:12:23;94527.44;;;3.01;85.00
44297;BME280;51842;47.450;8.654;2023-04-15T03:14:49;94523.53;;;3.04;85.11
44297;BME280;51842;47.450;8.654;2023-04-15T03:17:14;94529.03;;;3.03;84.69
44297;BME280;51842;47.450;8.654;2023-04-15T03:19:40;94528.78;;;3.04;84.06
44297;BME280;51842;47.450;8.654;2023-04-15T03:22:06;94534.06;;;3.04;84.13
44297;BME280;51842;47.450;8.654;2023-04-15T03:24:32;94523.53;;;3.04;84.41
44297;BME280;51842;47.450;8.654;2023-04-15T03:26:57;94523.53;;;3.04;83.92
44297;BME280;51842;47.450;8.654;2023-04-15T03:29:23;94517.69;;;3.02;83.82
44297;BME280;51842;47.450;8.654;2023-04-15T03:31:49;94522.41;;;3.00;82.49
44297;BME280;51842;47.450;8.654;2023-04-15T03:34:15;94521.91;;;3.03;83.88
44297;BME280;51842;47.450;8.654;2023-04-15T03:36:41;94517.69;;;3.02;83.65
44297;BME280;51842;47.450;8.654;2023-04-15T03:39:07;94511.94;;;3.05;85.11
44297;BME280;51842;47.450;8.654;2023-04-15T03:41:33;94513.78;;;3.05;84.46
44297;BME280;51842;47.450;8.654;2023-04-15T03:43:58;94516.72;;;3.08;84.36
44297;BME280;51842;47.450;8.654;2023-04-15T03:46:24;94514.88;;;3.09;83.59
44297;BME280;51842;47.450;8.654;2023-04-15T03:48:50;94521.75;;;3.10;83.86
44297;BME280;51842;47.450;8.654;2023-04-15T03:51:16;94513.84;;;3.10;83.91
44297;BME280;51842;47.450;8.654;2023-04-15T03:53:41;94519.09;;;3.10;83.98
44297;BME280;51842;47.450;8.654;2023-04-15T03:56:07;94515.19;;;3.12;84.58
44297;BME280;51842;47.450;8.654;2023-04-15T03:58:33;94517.81;;;3.12;84.46
44297;BME280;51842;47.450;8.654;2023-04-15T04:00:58;94514.41;;;3.12;84.85
44297;BME280;51842;47.450;8.654;2023-04-15T04:03:24;94507.78;;;3.09;84.67
44297;BME280;51842;47.450;8.654;2023-04-15T04:05:50;94512.25;;;3.09;85.26
44297;BME280;51842;47.450;8.654;2023-04-15T04:08:16;94514.31;;;3.07;86.50
44297;BME280;51842;47.450;8.654;2023-04-15T04:10:44;94513.50;;;3.01;85.90
44297;BME280;51842;47.450;8.654;2023-04-15T04:13:09;94511.94;;;3.05;84.60
44297;BME280;51842;47.450;8.654;2023-04-15T04:15:35;94516.47;;;3.10;84.55
44297;BME280;51842;47.450;8.654;2023-04-15T04:18:01;94512.00;;;3.10;84.78
44297;BME280;51842;47.450;8.654;2023-04-15T04:20:27;94517.25;;;3.10;84.41
44297;BME280;51842;47.450;8.654;2023-04-15T04:22:52;94513.53;;;3.06;85.42
44297;BME280;51842;47.450;8.654;2023-04-15T04:25:18;94509.38;;;3.10;85.54
44297;BME280;51842;47.450;8.654;2023-04-15T04:27:44;94519.66;;;3.12;85.52
44297;BME280;51842;47.450;8.654;2023-04-15T04:30:10;94517.03;;;3.12;85.86
44297;BME280;51842;47.450;8.654;2023-04-15T04:32:37;94523.09;;;3.12;85.22
44297;BME280;51842;47.450;8.654;2023-04-15T04:35:03;94527.56;;;3.12;84.77
44297;BME280;51842;47.450;8.654;2023-04-15T04:37:29;94531.00;;;3.12;84.60
44297;BME280;51842;47.450;8.654;2023-04-15T04:39:55;94527.06;;;3.15;85.24
44297;BME280;51842;47.450;8.654;2023-04-15T04:42:21;94525.81;;;3.17;84.73
44297;BME280;51842;47.450;8.654;2023-04-15T04:44:47;94528.97;;;3.19;85.92
44297;BME280;51842;47.450;8.654;2023-04-15T04:47:13;94531.94;;;3.23;85.73
44297;BME280;51842;47.450;8.654;2023-04-15T04:49:39;94527.16;;;3.20;85.33
44297;BME280;51842;47.450;8.654;2023-04-15T04:52:05;94529.03;;;3.24;85.04
44297;BME280;51842;47.450;8.654;2023-04-15T04:54:32;94523.78;;;3.24;84.52
44297;BME280;51842;47.450;8.654;2023-04-15T04:56:57;94520.66;;;3.28;84.41
44297;BME280;51842;47.450;8.654;2023-04-15T04:59:24;94526.22;;;3.31;84.89
44297;BME280;51842;47.450;8.654;2023-04-15T05:01:50;94526.53;;;3.35;85.18
44297;BME280;51842;47.450;8.654;2023-04-15T05:04:16;94529.72;;;3.37;84.80
44297;BME280;51842;47.450;8.654;2023-04-15T05:06:41;94535.28;;;3.40;84.69
44297;BME280;51842;47.450;8.654;2023-04-15T05:09:07;94533.94;;;3.38;83.83
44297;BME280;51842;47.450;8.654;2023-04-15T05:11:33;94539.28;;;3.43;82.22
44297;BME280;51842;47.450;8.654;2023-04-15T05:13:58;94541.72;;;3.50;82.37
44297;BME280;51842;47.450;8.654;2023-04-15T05:16:26;94546.28;;;3.54;83.07
44297;BME280;51842;47.450;8.654;2023-04-15T05:18:52;94532.09;;;3.60;84.43
44297;BME280;51842;47.450;8.654;2023-04-15T05:21:18;94533.75;;;3.66;84.87
44297;BME280;51842;47.450;8.654;2023-04-15T05:23:44;94539.16;;;3.77;85.33
44297;BME280;51842;47.450;8.654;2023-04-15T05:26:10;94541.03;;;3.81;85.40
44297;BME280;51842;47.450;8.654;2023-04-15T05:28:35;94539.75;;;3.84;82.95
44297;BME280;51842;47.450;8.654;2023-04-15T05:31:01;94548.53;;;3.94;83.16
44297;BME280;51842;47.450;8.654;2023-04-15T05:33:28;94551.78;;;4.02;83.33
44297;BME280;51842;47.450;8.654;2023-04-15T05:35:54;94549.47;;;4.10;82.67
44297;BME280;51842;47.450;8.654;2023-04-15T05:38:20;94548.25;;;4.18;81.63
44297;BME280;51842;47.450;8.654;2023-04-15T05:40:45;94553.38;;;4.30;81.50
44297;BME280;51842;47.450;8.654;2023-04-15T05:43:11;94555.81;;;4.36;80.03
44297;BME280;51842;47.450;8.654;2023-04-15T05:45:37;94553.81;;;4.49;80.15
44297;BME280;51842;47.450;8.654;2023-04-15T05:48:03;94545.19;;;4.58;79.97
44297;BME280;51842;47.450;8.654;2023-04-15T05:50:28;94550.81;;;4.72;78.11
44297;BME280;51842;47.450;8.654;2023-04-15T05:52:54;94554.63;;;4.86;77.04
44297;BME280;51842;47.450;8.654;2023-04-15T05:55:20;94556.81;;;5.00;75.57
44297;BME280;51842;47.450;8.654;2023-04-15T05:57:46;94551.88;;;5.14;74.69
44297;BME280;51842;47.450;8.654;2023-04-15T06:00:13;94556.44;;;5.23;71.00
44297;BME280;51842;47.450;8.654;2023-04-15T06:02:39;94548.84;;;5.37;70.90
44297;BME280;51842;47.450;8.654;2023-04-15T06:05:06;94547.31;;;5.51;70.39
44297;BME280;51842;47.450;8.654;2023-04-15T06:07:35;94546.31;;;5.63;69.86
44297;BME280;51842;47.450;8.654;2023-04-15T06:10:02;94554.53;;;5.76;70.37
44297;BME280;51842;47.450;8.654;2023-04-15T06:12:29;94548.25;;;5.88;70.24
44297;BME280;51842;47.450;8.654;2023-04-15T06:14:55;94541.44;;;5.97;68.38
44297;BME280;51842;47.450;8.654;2023-04-15T06:17:21;94548.88;;;6.10;69.83
44297;BME280;51842;47.450;8.654;2023-04-15T06:19:47;94546.50;;;6.19;69.17
44297;BME280;51842;47.450;8.654;2023-04-15T06:22:13;94547.31;;;6.24;68.45
44297;BME280;51842;47.450;8.654;2023-04-15T06:24:39;94553.94;;;6.37;67.74
44297;BME280;51842;47.450;8.654;2023-04-15T06:27:05;94552.38;;;6.41;67.36
44297;BME280;51842;47.450;8.654;2023-04-15T06:29:31;94547.88;;;6.52;66.17
44297;BME280;51842;47.450;8.654;2023-04-15T06:31:57;94541.25;;;6.60;65.79
44297;BME280;51842;47.450;8.654;2023-04-15T06:34:22;94547.34;;;6.65;66.12
44297;BME280;51842;47.450;8.654;2023-04-15T06:36:48;94555.56;;;6.69;66.03
44297;BME280;51842;47.450;8.654;2023-04-15T06:39:14;94554.78;;;6.84;65.29
44297;BME280;51842;47.450;8.654;2023-04-15T06:41:39;94557.94;;;6.96;65.64
44297;BME280;51842;47.450;8.654;2023-04-15T06:44:06;94553.41;;;7.12;65.28
44297;BME280;51842;47.450;8.654;2023-04-15T06:46:31;94555.75;;;7.24;63.19
44297;BME280;51842;47.450;8.654;2023-04-15T06:48:57;94553.13;;;7.34;62.62
44297;BME280;51842;47.450;8.654;2023-04-15T06:51:23;94553.59;;;7.51;62.71
44297;BME280;51842;47.450;8.654;2023-04-15T06:53:49;94558.59;;;7.63;62.49
44297;BME280;51842;47.450;8.654;2023-04-15T06:56:14;94561.44;;;7.77;61.31
44297;BME280;51842;47.450;8.654;2023-04-15T06:58:40;94561.91;;;7.89;60.00
44297;BME280;51842;47.450;8.654;2023-04-15T07:01:06;94561.38;;;7.97;60.19
44297;BME280;51842;47.450;8.654;2023-04-15T07:03:32;94554.13;;;8.08;59.76
44297;BME280;51842;47.450;8.654;2023-04-15T07:05:57;94559.38;;;8.23;58.98
44297;BME280;51842;47.450;8.654;2023-04-15T07:08:24;94563.28;;;8.41;58.94
44297;BME280;51842;47.450;8.654;2023-04-15T07:10:50;94561.59;;;8.55;59.27
44297;BME280;51842;47.450;8.654;2023-04-15T07:13:16;94555.13;;;8.67;57.87
44297;BME280;51842;47.450;8.654;2023-04-15T07:15:41;94553.22;;;8.77;58.58
44297;BME280;51842;47.450;8.654;2023-04-15T07:18:07;94551.28;;;8.83;57.21
44297;BME280;51842;47.450;8.654;2023-04-15T07:20:34;94545.72;;;8.85;57.04
44297;BME280;51842;47.450;8.654;2023-04-15T07:23:00;94544.53;;;8.96;57.75
44297;BME280;51842;47.450;8.654;2023-04-15T07:25:26;94550.84;;;9.05;56.80
44297;BME280;51842;47.450;8.654;2023-04-15T07:27:52;94552.91;;;9.13;56.40
44297;BME280;51842;47.450;8.654;2023-04-15T07:30:18;94543.25;;;9.22;56.22
44297;BME280;51842;47.450;8.654;2023-04-15T07:32:44;94542.34;;;9.32;56.62
44297;BME280;51842;47.450;8.654;2023-04-15T07:35:10;94539.25;;;9.25;58.68
44297;BME280;51842;47.450;8.654;2023-04-15T07:37:36;94543.19;;;9.52;59.29
44297;BME280;51842;47.450;8.654;2023-04-15T07:40:02;94543.59;;;9.64;59.42
44297;BME280;51842;47.450;8.654;2023-04-15T07:42:29;94545.34;;;9.73;59.28
44297;BME280;51842;47.450;8.654;2023-04-15T07:44:56;94543.59;;;9.88;58.51
44297;BME280;51842;47.450;8.654;2023-04-15T07:47:21;94551.53;;;10.12;59.96
44297;BME280;51842;47.450;8.654;2023-04-15T07:49:47;94546.88;;;10.23;59.18
44297;BME280;51842;47.450;8.654;2023-04-15T07:52:13;94546.84;;;10.04;58.82
44297;BME280;51842;47.450;8.654;2023-04-15T07:54:38;94547.44;;;10.01;59.05
44297;BME280;51842;47.450;8.654;2023-04-15T07:57:04;94557.88;;;10.16;59.32
44297;BME280;51842;47.450;8.654;2023-04-15T07:59:30;94548.00;;;10.16;59.10
44297;BME280;51842;47.450;8.654;2023-04-15T08:01:57;94556.72;;;10.22;59.70
44297;BME280;51842;47.450;8.654;2023-04-15T08:04:24;94555.13;;;10.21;58.91
44297;BME280;51842;47.450;8.654;2023-04-15T08:06:49;94552.69;;;10.25;58.34
44297;BME280;51842;47.450;8.654;2023-04-15T08:09:16;94556.09;;;10.30;58.74
44297;BME280;51842;47.450;8.654;2023-04-15T08:11:42;94548.28;;;10.39;58.78
44297;BME280;51842;47.450;8.654;2023-04-15T08:14:08;94552.75;;;10.44;59.16
44297;BME280;51842;47.450;8.654;2023-04-15T08:16:34;94548.13;;;10.49;59.58
44297;BME280;51842;47.450;8.654;2023-04-15T08:19:00;94550.91;;;10.58;59.15
44297;BME280;51842;47.450;8.654;2023-04-15T08:21:26;94555.66;;;10.61;59.66
44297;BME280;51842;47.450;8.654;2023-04-15T08:23:53;94551.72;;;10.58;59.77
44297;BME280;51842;47.450;8.654;2023-04-15T08:26:20;94552.22;;;10.60;59.57
44297;BME280;51842;47.450;8.654;2023-04-15T08:28:47;94555.97;;;10.59;59.73
44297;BME280;51842;47.450;8.654;2023-04-15T08:31:18;94561.56;;;10.58;59.94
44297;BME280;51842;47.450;8.654;2023-04-15T08:33:45;94557.25;;;10.62;59.66
44297;BME280;51842;47.450;8.654;2023-04-15T08:36:11;94549.84;;;10.59;59.76
44297;BME280;51842;47.450;8.654;2023-04-15T08:38:38;94558.63;;;10.59;60.13
44297;BME280;51842;47.450;8.654;2023-04-15T08:41:23;94565.19;;;10.48;60.95
44297;BME280;51842;47.450;8.654;2023-04-15T08:44:04;94570.00;;;10.46;61.26
44297;BME280;51842;47.450;8.654;2023-04-15T08:46:33;94568.19;;;10.60;60.11
44297;BME280;51842;47.450;8.654;2023-04-15T08:49:03;94561.63;;;10.72;59.46
44297;BME280;51842;47.450;8.654;2023-04-15T08:51:31;94566.25;;;10.85;59.94
44297;BME280;51842;47.450;8.654;2023-04-15T08:53:58;94563.97;;;10.92;59.54
44297;BME280;51842;47.450;8.654;2023-04-15T08:56:25;94562.84;;;11.12;59.12
44297;BME280;51842;47.450;8.654;2023-04-15T08:58:51;94560.91;;;11.18;58.69
44297;BME280;51842;47.450;8.654;2023-04-15T09:01:17;94563.31;;;11.33;60.45
44297;BME280;51842;47.450;8.654;2023-04-15T09:03:44;94563.91;;;11.44;59.30
44297;BME280;51842;47.450;8.654;2023-04-15T09:06:10;94565.91;;;11.52;59.71
44297;BME280;51842;47.450;8.654;2023-04-15T09:08:36;94569.38;;;11.66;60.55
44297;BME280;51842;47.450;8.654;2023-04-15T09:11:03;94567.09;;;11.73;60.11
44297;BME280;51842;47.450;8.654;2023-04-15T09:13:30;94569.31;;;11.99;59.80
44297;BME280;51842;47.450;8.654;2023-04-15T09:15:56;94570.41;;;11.98;58.86
44297;BME280;51842;47.450;8.654;2023-04-15T09:18:34;94571.47;;;12.11;56.38
44297;BME280;51842;47.450;8.654;2023-04-15T09:21:10;94577.56;;;12.39;57.27
44297;BME280;51842;47.450;8.654;2023-04-15T09:23:38;94579.75;;;12.73;56.42
44297;BME280;51842;47.450;8.654;2023-04-15T09:26:05;94580.97;;;12.67;53.88
44297;BME280;51842;47.450;8.654;2023-04-15T09:28:32;94582.16;;;12.61;53.76
44297;BME280;51842;47.450;8.654;2023-04-15T09:31:00;94591.25;;;12.73;52.06
44297;BME280;51842;47.450;8.654;2023-04-15T09:33:28;94591.63;;;12.31;50.83
44297;BME280;51842;47.450;8.654;2023-04-15T09:36:04;94595.47;;;12.74;51.52
44297;BME280;51842;47.450;8.654;2023-04-15T09:38:31;94598.53;;;12.82;51.03
44297;BME280;51842;47.450;8.654;2023-04-15T09:40:58;94593.84;;;12.87;51.17
44297;BME280;51842;47.450;8.654;2023-04-15T09:43:38;94599.34;;;13.05;50.49
44297;BME280;51842;47.450;8.654;2023-04-15T09:46:05;94600.97;;;13.14;50.57
44297;BME280;51842;47.450;8.654;2023-04-15T09:48:31;94594.34;;;13.26;50.29
44297;BME280;51842;47.450;8.654;2023-04-15T09:50:58;94607.88;;;13.29;48.95
44297;BME280;51842;47.450;8.654;2023-04-15T09:53:26;94599.69;;;13.12;47.53
44297;BME280;51842;47.450;8.654;2023-04-15T09:55:58;94607.22;;;13.10;47.40
44297;BME280;51842;47.450;8.654;2023-04-15T09:58:30;94598.38;;;13.46;46.14
44297;BME280;51842;47.450;8.654;2023-04-15T10:00:59;94597.88;;;13.43;45.92
44297;BME280;51842;47.450;8.654;2023-04-15T10:03:32;94599.50;;;13.53;45.98
44297;BME280;51842;47.450;8.654;2023-04-15T10:06:00;94601.44;;;13.30;45.41
44297;BME280;51842;47.450;8.654;2023-04-15T10:08:33;94604.16;;;13.16;46.47
44297;BME280;51842;47.450;8.654;2023-04-15T10:11:02;94612.47;;;13.15;45.93
44297;BME280;51842;47.450;8.654;2023-04-15T10:13:30;94603.03;;;13.17;45.28
44297;BME280;51842;47.450;8.654;2023-04-15T10:16:10;94606.28;;;13.28;45.94
44297;BME280;51842;47.450;8.654;2023-04-15T10:18:43;94601.78;;;13.37;46.70
44297;BME280;51842;47.450;8.654;2023-04-15T10:21:09;94603.22;;;13.43;46.54
44297;BME280;51842;47.450;8.654;2023-04-15T10:23:35;94600.50;;;13.57;46.77
44297;BME280;51842;47.450;8.654;2023-04-15T10:26:03;94604.41;;;13.51;46.48
44297;BME280;51842;47.450;8.654;2023-04-15T10:28:29;94608.38;;;13.62;46.68
44297;BME280;51842;47.450;8.654;2023-04-15T10:30:56;94608.16;;;13.28;46.45
44297;BME280;51842;47.450;8.654;2023-04-15T10:33:25;94609.84;;;13.24;45.63
44297;BME280;51842;47.450;8.654;2023-04-15T10:35:54;94619.47;;;13.25;45.34
44297;BME280;51842;47.450;8.654;2023-04-15T10:38:42;94617.88;;;13.46;46.30
44297;BME280;51842;47.450;8.654;2023-04-15T10:41:34;94611.75;;;13.46;45.14
44297;BME280;51842;47.450;8.654;2023-04-15T10:44:02;94621.41;;;13.10;46.30
44297;BME280;51842;47.450;8.654;2023-04-15T10:46:38;94612.47;;;13.15;45.58
44297;BME280;51842;47.450;8.654;2023-04-15T10:49:14;94617.13;;;13.09;46.19
44297;BME280;51842;47.450;8.654;2023-04-15T10:52:01;94627.50;;;13.25;45.84
44297;BME280;51842;47.450;8.654;2023-04-15T10:59:59;94631.41;;;13.05;46.90
44297;BME280;51842;47.450;8.654;2023-04-15T11:02:51;94629.88;;;13.26;46.01
44297;BME280;51842;47.450;8.654;2023-04-15T11:05:18;94639.19;;;13.51;46.49
44297;BME280;51842;47.450;8.654;2023-04-15T11:07:57;94638.50;;;13.46;44.94
44297;BME280;51842;47.450;8.654;2023-04-15T11:13:03;94637.47;;;13.33;45.04
44297;BME280;51842;47.450;8.654;2023-04-15T11:15:46;94636.31;;;13.25;45.78
44297;BME280;51842;47.450;8.654;2023-04-15T11:18:21;94646.88;;;13.53;46.29
44297;BME280;51842;47.450;8.654;2023-04-15T11:20:50;94650.13;;;13.72;45.47
44297;BME280;51842;47.450;8.654;2023-04-15T11:23:41;94651.41;;;13.75;45.42
44297;BME280;51842;47.450;8.654;2023-04-15T11:26:11;94658.94;;;13.64;45.17
44297;BME280;51842;47.450;8.654;2023-04-15T11:28:40;94654.09;;;13.75;45.92
44297;BME280;51842;47.450;8.654;2023-04-15T11:31:17;94657.34;;;13.94;45.58
44297;BME280;51842;47.450;8.654;2023-04-15T11:33:57;94654.09;;;13.75;44.43
44297;BME280;51842;47.450;8.654;2023-04-15T11:36:29;94659.28;;;13.71;45.45
44297;BME280;51842;47.450;8.654;2023-04-15T11:38:58;94664.00;;;14.05;45.08
44297;BME280;51842;47.450;8.654;2023-04-15T11:41:24;94667.19;;;14.07;45.95
44297;BME280;51842;47.450;8.654;2023-04-15T11:43:51;94675.00;;;14.35;46.03
44297;BME280;51842;47.450;8.654;2023-04-15T11:46:17;94679.56;;;14.34;45.73
44297;BME280;51842;47.450;8.654;2023-04-15T11:48:45;94679.41;;;14.31;46.91
44297;BME280;51842;47.450;8.654;2023-04-15T11:51:12;94674.16;;;14.17;49.17
44297;BME280;51842;47.450;8.654;2023-04-15T11:53:43;94686.16;;;13.97;48.79
44297;BME280;51842;47.450;8.654;2023-04-15T11:56:17;94688.78;;;13.80;48.71
44297;BME280;51842;47.450;8.654;2023-04-15T11:58:44;94688.63;;;13.85;50.98
44297;BME280;51842;47.450;8.654;2023-04-15T12:01:10;94692.16;;;13.72;50.86
44297;BME280;51842;47.450;8.654;2023-04-15T12:06:17;94699.22;;;13.90;50.43
44297;BME280;51842;47.450;8.654;2023-04-15T12:16:47;94707.75;;;14.32;48.59
44297;BME280;51842;47.450;8.654;2023-04-15T12:19:38;94712.34;;;14.00;49.17
44297;BME280;51842;47.450;8.654;2023-04-15T12:22:15;94709.44;;;14.19;50.17
44297;BME280;51842;47.450;8.654;2023-04-15T12:24:43;94723.38;;;13.99;51.01
44297;BME280;51842;47.450;8.654;2023-04-15T12:27:14;94715.59;;;13.88;50.79
44297;BME280;51842;47.450;8.654;2023-04-15T12:29:41;94723.41;;;13.85;51.05
44297;BME280;51842;47.450;8.654;2023-04-15T12:32:12;94724.09;;;13.68;51.14
44297;BME280;51842;47.450;8.654;2023-04-15T12:34:49;94736.19;;;13.43;51.75
44297;BME280;51842;47.450;8.654;2023-04-15T12:37:15;94743.50;;;13.51;52.09
44297;BME280;51842;47.450;8.654;2023-04-15T12:39:46;94737.78;;;13.89;50.73
44297;BME280;51842;47.450;8.654;2023-04-15T12:42:14;94745.91;;;14.38;49.71
44297;BME280;51842;47.450;8.654;2023-04-15T12:44:40;94747.69;;;14.73;49.21
44297;BME280;51842;47.450;8.654;2023-04-15T12:47:09;94745.25;;;14.63;48.10
44297;BME280;51842;47.450;8.654;2023-04-15T12:49:35;94746.69;;;14.69;49.38
44297;BME280;51842;47.450;8.654;2023-04-15T12:52:03;94756.59;;;14.60;48.34
44297;BME280;51842;47.450;8.654;2023-04-15T12:54:30;94759.81;;;14.40;48.11
44297;BME280;51842;47.450;8.654;2023-04-15T12:56:57;94756.19;;;14.35;49.24
44297;BME280;51842;47.450;8.654;2023-04-15T12:59:24;94760.09;;;14.38;49.45
44297;BME280;51842;47.450;8.654;2023-04-15T13:01:51;94769.41;;;14.41;49.44
44297;BME280;51842;47.450;8.654;2023-04-15T13:04:19;94769.84;;;14.03;50.94
44297;BME280;51842;47.450;8.654;2023-04-15T13:06:45;94778.19;;;13.79;51.69
44297;BME280;51842;47.450;8.654;2023-04-15T13:09:11;94780.47;;;13.72;52.61
44297;BME280;51842;47.450;8.654;2023-04-15T13:11:37;94781.53;;;13.62;52.79
44297;BME280;51842;47.450;8.654;2023-04-15T13:14:05;94787.63;;;13.76;53.00
44297;BME280;51842;47.450;8.654;2023-04-15T13:16:32;94784.56;;;13.69;52.79
44297;BME280;51842;47.450;8.654;2023-04-15T13:19:00;94789.09;;;13.46;52.89
44297;BME280;51842;47.450;8.654;2023-04-15T13:21:26;94796.84;;;13.48;53.17
44297;BME280;51842;47.450;8.654;2023-04-15T13:23:53;94792.91;;;13.17;52.45
44297;BME280;51842;47.450;8.654;2023-04-15T13:26:20;94791.69;;;13.24;53.16
44297;BME280;51842;47.450;8.654;2023-04-15T13:28:46;94801.75;;;12.77;53.31